sensor_id;sensor_type;location;lat;lon;timestamp;P1;durP1;ratioP1;P2;durP2;ratioP2
51529;SDS011;37613;51.788;21.582;2023-04-25T00:04:03;10.60;;;6.90;;
51529;SDS011;37613;51.788;21.582;2023-04-25T00:08:07;7.70;;;6.90;;
51529;SDS011;37613;51.788;21.582;2023-04-25T00:12:09;8.60;;;6.60;;
51529;SDS011;37613;51.788;21.582;2023-04-25T00:16:27;8.40;;;6.60;;
51529;SDS011;37613;51.788;21.582;2023-04-25T00:20:33;9.30;;;7.00;;
51529;SDS011;37613;51.788;21.582;2023-04-25T00:24:40;9.60;;;6.40;;
51529;SDS011;37613;51.788;21.582;2023-04-25T00:28:45;7.90;;;6.40;;
51529;SDS011;37613;51.788;21.582;2023-04-25T00:37:15;7.20;;;6.20;;
51529;SDS011;37613;51.788;21.582;2023-04-25T00:41:32;11.30;;;6.30;;
51529;SDS011;37613;51.788;21.582;2023-04-25T00:45:35;7.30;;;6.30;;
51529;SDS011;37613;51.788;21.582;2023-04-25T00:49:46;11.00;;;6.60;;
51529;SDS011;37613;51.788;21.582;2023-04-25T00:53:50;11.50;;;6.90;;
51529;SDS011;37613;51.788;21.582;2023-04-25T00:58:01;13.40;;;8.70;;
51529;SDS011;37613;51.788;21.582;2023-04-25T01:02:19;10.70;;;6.80;;
51529;SDS011;37613;51.788;21.582;2023-04-25T01:06:27;10.00;;;6.80;;
51529;SDS011;37613;51.788;21.582;2023-04-25T01:10:33;11.40;;;7.90;;
51529;SDS011;37613;51.788;21.582;2023-04-25T01:14:35;11.80;;;7.70;;
51529;SDS011;37613;51.788;21.582;2023-04-25T01:18:49;9.90;;;8.50;;
51529;SDS011;37613;51.788;21.582;2023-04-25T01:23:05;10.90;;;8.20;;
51529;SDS011;37613;51.788;21.582;2023-04-25T01:27:19;10.60;;;8.80;;
51529;SDS011;37613;51.788;21.582;2023-04-25T01:31:23;11.50;;;8.80;;
51529;SDS011;37613;51.788;21.582;2023-04-25T01:35:28;12.00;;;9.50;;
51529;SDS011;37613;51.788;21.582;2023-04-25T01:39:42;10.30;;;8.70;;
51529;SDS011;37613;51.788;21.582;2023-04-25T01:43:45;12.10;;;8.50;;
51529;SDS011;37613;51.788;21.582;2023-04-25T01:47:58;12.60;;;9.70;;
51529;SDS011;37613;51.788;21.582;2023-04-25T01:52:03;16.00;;;9.80;;
51529;SDS011;37613;51.788;21.582;2023-04-25T01:56:08;19.70;;;10.20;;
51529;SDS011;37613;51.788;21.582;2023-04-25T02:00:19;14.20;;;9.60;;
51529;SDS011;37613;51.788;21.582;2023-04-25T02:04:40;14.60;;;10.70;;
51529;SDS011;37613;51.788;21.582;2023-04-25T02:08:45;14.60;;;11.80;;
51529;SDS011;37613;51.788;21.582;2023-04-25T02:13:00;18.00;;;11.90;;
51529;SDS011;37613;51.788;21.582;2023-04-25T02:17:03;12.90;;;11.20;;
51529;SDS011;37613;51.788;21.582;2023-04-25T02:21:14;15.80;;;11.10;;
51529;SDS011;37613;51.788;21.582;2023-04-25T02:25:29;14.20;;;10.70;;
51529;SDS011;37613;51.788;21.582;2023-04-25T02:29:33;18.40;;;11.40;;
51529;SDS011;37613;51.788;21.582;2023-04-25T02:33:40;17.50;;;11.90;;
51529;SDS011;37613;51.788;21.582;2023-04-25T02:37:45;20.30;;;13.40;;
51529;SDS011;37613;51.788;21.582;2023-04-25T02:50:59;14.20;;;12.10;;
51529;SDS011;37613;51.788;21.582;2023-04-25T02:55:04;16.80;;;12.60;;
51529;SDS011;37613;51.788;21.582;2023-04-25T02:59:15;17.60;;;12.50;;
51529;SDS011;37613;51.788;21.582;2023-04-25T03:03:19;25.60;;;17.10;;
51529;SDS011;37613;51.788;21.582;2023-04-25T03:07:24;21.00;;;14.20;;
51529;SDS011;37613;51.788;21.582;2023-04-25T03:15:50;16.20;;;12.10;;
51529;SDS011;37613;51.788;21.582;2023-04-25T03:24:31;14.60;;;11.50;;
51529;SDS011;37613;51.788;21.582;2023-04-25T03:28:36;14.60;;;12.30;;
51529;SDS011;37613;51.788;21.582;2023-04-25T03:32:39;28.40;;;20.40;;
51529;SDS011;37613;51.788;21.582;2023-04-25T03:36:41;30.80;;;18.40;;
51529;SDS011;37613;51.788;21.582;2023-04-25T03:45:13;14.10;;;11.50;;
51529;SDS011;37613;51.788;21.582;2023-04-25T03:49:21;15.80;;;12.50;;
51529;SDS011;37613;51.788;21.582;2023-04-25T03:53:24;18.10;;;13.20;;
51529;SDS011;37613;51.788;21.582;2023-04-25T03:57:26;17.90;;;12.40;;
51529;SDS011;37613;51.788;21.582;2023-04-25T04:01:49;17.00;;;11.70;;
51529;SDS011;37613;51.788;21.582;2023-04-25T04:05:51;15.10;;;12.00;;
51529;SDS011;37613;51.788;21.582;2023-04-25T04:14:33;17.70;;;11.40;;
51529;SDS011;37613;51.788;21.582;2023-04-25T04:18:47;15.00;;;11.60;;
51529;SDS011;37613;51.788;21.582;2023-04-25T04:22:51;16.90;;;12.90;;
51529;SDS011;37613;51.788;21.582;2023-04-25T04:26:53;15.20;;;12.50;;
51529;SDS011;37613;51.788;21.582;2023-04-25T04:31:01;16.20;;;12.00;;
51529;SDS011;37613;51.788;21.582;2023-04-25T04:35:05;20.60;;;13.50;;
51529;SDS011;37613;51.788;21.582;2023-04-25T04:43:20;14.90;;;12.60;;
51529;SDS011;37613;51.788;21.582;2023-04-25T04:47:22;16.00;;;12.30;;
51529;SDS011;37613;51.788;21.582;2023-04-25T04:51:29;19.00;;;13.00;;
51529;SDS011;37613;51.788;21.582;2023-04-25T04:55:35;17.10;;;14.10;;
51529;SDS011;37613;51.788;21.582;2023-04-25T04:59:37;18.20;;;13.80;;
51529;SDS011;37613;51.788;21.582;2023-04-25T05:03:39;20.50;;;13.50;;
51529;SDS011;37613;51.788;21.582;2023-04-25T05:07:42;16.10;;;12.30;;
51529;SDS011;37613;51.788;21.582;2023-04-25T05:11:49;20.10;;;11.90;;
51529;SDS011;37613;51.788;21.582;2023-04-25T05:15:57;15.90;;;12.70;;
51529;SDS011;37613;51.788;21.582;2023-04-25T05:20:07;15.50;;;12.20;;
51529;SDS011;37613;51.788;21.582;2023-04-25T05:24:10;13.70;;;11.70;;
51529;SDS011;37613;51.788;21.582;2023-04-25T05:28:15;15.20;;;11.40;;
51529;SDS011;37613;51.788;21.582;2023-04-25T05:32:17;12.10;;;9.90;;
51529;SDS011;37613;51.788;21.582;2023-04-25T05:36:24;16.10;;;9.70;;
51529;SDS011;37613;51.788;21.582;2023-04-25T05:40:27;10.70;;;9.20;;
51529;SDS011;37613;51.788;21.582;2023-04-25T05:44:32;11.60;;;8.70;;
51529;SDS011;37613;51.788;21.582;2023-04-25T05:48:38;11.80;;;8.30;;
51529;SDS011;37613;51.788;21.582;2023-04-25T05:57:25;9.60;;;7.90;;
51529;SDS011;37613;51.788;21.582;2023-04-25T06:01:28;10.80;;;8.10;;
51529;SDS011;37613;51.788;21.582;2023-04-25T06:05:33;11.50;;;8.40;;
51529;SDS011;37613;51.788;21.582;2023-04-25T06:09:41;13.30;;;7.20;;
51529;SDS011;37613;51.788;21.582;2023-04-25T06:13:45;9.60;;;6.90;;
51529;SDS011;37613;51.788;21.582;2023-04-25T06:17:53;7.00;;;6.30;;
51529;SDS011;37613;51.788;21.582;2023-04-25T06:21:58;7.80;;;6.20;;
51529;SDS011;37613;51.788;21.582;2023-04-25T06:26:15;10.50;;;6.20;;
51529;SDS011;37613;51.788;21.582;2023-04-25T06:30:18;9.00;;;5.50;;
51529;SDS011;37613;51.788;21.582;2023-04-25T06:34:23;5.80;;;5.20;;
51529;SDS011;37613;51.788;21.582;2023-04-25T06:38:29;7.60;;;4.80;;
51529;SDS011;37613;51.788;21.582;2023-04-25T06:42:43;6.40;;;5.40;;
51529;SDS011;37613;51.788;21.582;2023-04-25T06:46:47;8.70;;;5.30;;
51529;SDS011;37613;51.788;21.582;2023-04-25T06:51:02;5.90;;;4.50;;
51529;SDS011;37613;51.788;21.582;2023-04-25T06:55:10;10.90;;;7.60;;
51529;SDS011;37613;51.788;21.582;2023-04-25T06:59:15;9.00;;;8.00;;
51529;SDS011;37613;51.788;21.582;2023-04-25T07:03:27;7.00;;;5.90;;
51529;SDS011;37613;51.788;21.582;2023-04-25T07:07:36;5.20;;;4.30;;
51529;SDS011;37613;51.788;21.582;2023-04-25T07:11:43;5.20;;;4.60;;
51529;SDS011;37613;51.788;21.582;2023-04-25T07:15:48;6.70;;;4.50;;
51529;SDS011;37613;51.788;21.582;2023-04-25T07:24:39;6.90;;;5.40;;
51529;SDS011;37613;51.788;21.582;2023-04-25T07:28:41;15.10;;;10.00;;
51529;SDS011;37613;51.788;21.582;2023-04-25T07:32:50;5.60;;;3.90;;
51529;SDS011;37613;51.788;21.582;2023-04-25T07:36:55;4.30;;;3.90;;
51529;SDS011;37613;51.788;21.582;2023-04-25T07:41:04;4.40;;;3.90;;
51529;SDS011;37613;51.788;21.582;2023-04-25T07:45:06;4.70;;;3.60;;
51529;SDS011;37613;51.788;21.582;2023-04-25T07:49:12;23.60;;;15.30;;
51529;SDS011;37613;51.788;21.582;2023-04-25T07:53:14;13.50;;;9.50;;
51529;SDS011;37613;51.788;21.582;2023-04-25T07:57:20;5.20;;;4.70;;
51529;SDS011;37613;51.788;21.582;2023-04-25T08:01:22;8.90;;;4.70;;
51529;SDS011;37613;51.788;21.582;2023-04-25T08:09:54;6.80;;;4.80;;
51529;SDS011;37613;51.788;21.582;2023-04-25T08:18:42;4.00;;;3.60;;
51529;SDS011;37613;51.788;21.582;2023-04-25T08:22:50;6.20;;;4.50;;
51529;SDS011;37613;51.788;21.582;2023-04-25T08:26:55;5.50;;;5.00;;
51529;SDS011;37613;51.788;21.582;2023-04-25T08:31:00;7.20;;;5.60;;
51529;SDS011;37613;51.788;21.582;2023-04-25T08:35:17;5.70;;;5.00;;
51529;SDS011;37613;51.788;21.582;2023-04-25T08:39:38;5.40;;;4.90;;
51529;SDS011;37613;51.788;21.582;2023-04-25T08:43:49;6.20;;;5.30;;
51529;SDS011;37613;51.788;21.582;2023-04-25T08:47:53;7.40;;;4.70;;
51529;SDS011;37613;51.788;21.582;2023-04-25T08:52:02;5.50;;;4.60;;
51529;SDS011;37613;51.788;21.582;2023-04-25T08:56:14;6.30;;;5.30;;
51529;SDS011;37613;51.788;21.582;2023-04-25T09:05:14;8.80;;;6.10;;
51529;SDS011;37613;51.788;21.582;2023-04-25T09:09:16;6.30;;;5.60;;
51529;SDS011;37613;51.788;21.582;2023-04-25T09:13:27;6.80;;;5.40;;
51529;SDS011;37613;51.788;21.582;2023-04-25T09:17:33;5.20;;;4.70;;
51529;SDS011;37613;51.788;21.582;2023-04-25T09:21:38;5.40;;;4.90;;
51529;SDS011;37613;51.788;21.582;2023-04-25T09:25:43;6.20;;;5.40;;
51529;SDS011;37613;51.788;21.582;2023-04-25T09:29:56;8.10;;;6.20;;
51529;SDS011;37613;51.788;21.582;2023-04-25T09:34:13;5.90;;;5.30;;
51529;SDS011;37613;51.788;21.582;2023-04-25T09:38:26;4.80;;;4.40;;
51529;SDS011;37613;51.788;21.582;2023-04-25T09:42:28;5.60;;;4.70;;
51529;SDS011;37613;51.788;21.582;2023-04-25T09:46:36;7.70;;;5.00;;
51529;SDS011;37613;51.788;21.582;2023-04-25T09:50:38;5.70;;;5.00;;
51529;SDS011;37613;51.788;21.582;2023-04-25T09:54:47;5.50;;;5.00;;
51529;SDS011;37613;51.788;21.582;2023-04-25T09:59:12;5.50;;;5.00;;
51529;SDS011;37613;51.788;21.582;2023-04-25T10:03:32;6.80;;;4.90;;
51529;SDS011;37613;51.788;21.582;2023-04-25T10:07:38;5.10;;;4.60;;
51529;SDS011;37613;51.788;21.582;2023-04-25T10:16:27;4.80;;;4.30;;
51529;SDS011;37613;51.788;21.582;2023-04-25T10:20:32;5.50;;;4.70;;
51529;SDS011;37613;51.788;21.582;2023-04-25T10:24:40;4.50;;;4.10;;
51529;SDS011;37613;51.788;21.582;2023-04-25T10:28:57;4.40;;;4.00;;
51529;SDS011;37613;51.788;21.582;2023-04-25T10:33:08;4.40;;;4.10;;
51529;SDS011;37613;51.788;21.582;2023-04-25T10:46:31;4.50;;;4.10;;
51529;SDS011;37613;51.788;21.582;2023-04-25T10:50:45;7.60;;;4.60;;
51529;SDS011;37613;51.788;21.582;2023-04-25T10:54:48;4.70;;;4.30;;
51529;SDS011;37613;51.788;21.582;2023-04-25T10:59:05;7.40;;;4.40;;
51529;SDS011;37613;51.788;21.582;2023-04-25T11:03:23;4.60;;;4.10;;
51529;SDS011;37613;51.788;21.582;2023-04-25T11:07:33;5.20;;;4.60;;
51529;SDS011;37613;51.788;21.582;2023-04-25T11:11:40;6.00;;;5.40;;
51529;SDS011;37613;51.788;21.582;2023-04-25T11:15:44;5.30;;;4.80;;
51529;SDS011;37613;51.788;21.582;2023-04-25T11:19:53;8.60;;;5.60;;
51529;SDS011;37613;51.788;21.582;2023-04-25T11:24:15;6.80;;;5.20;;
51529;SDS011;37613;51.788;21.582;2023-04-25T11:28:24;7.20;;;6.40;;
51529;SDS011;37613;51.788;21.582;2023-04-25T11:32:35;6.90;;;6.20;;
51529;SDS011;37613;51.788;21.582;2023-04-25T11:36:49;8.10;;;6.60;;
51529;SDS011;37613;51.788;21.582;2023-04-25T11:40:54;7.90;;;7.10;;
51529;SDS011;37613;51.788;21.582;2023-04-25T11:44:59;9.40;;;8.10;;
51529;SDS011;37613;51.788;21.582;2023-04-25T11:49:02;9.60;;;8.20;;
51529;SDS011;37613;51.788;21.582;2023-04-25T11:53:11;8.40;;;7.10;;
51529;SDS011;37613;51.788;21.582;2023-04-25T11:57:19;9.70;;;7.60;;
51529;SDS011;37613;51.788;21.582;2023-04-25T12:01:26;9.20;;;8.30;;
51529;SDS011;37613;51.788;21.582;2023-04-25T12:05:31;9.40;;;7.70;;
51529;SDS011;37613;51.788;21.582;2023-04-25T12:09:51;10.70;;;9.50;;
51529;SDS011;37613;51.788;21.582;2023-04-25T12:14:05;9.50;;;8.50;;
51529;SDS011;37613;51.788;21.582;2023-04-25T12:18:07;10.00;;;8.90;;
51529;SDS011;37613;51.788;21.582;2023-04-25T12:22:27;11.90;;;8.60;;
51529;SDS011;37613;51.788;21.582;2023-04-25T12:26:46;9.80;;;8.80;;
51529;SDS011;37613;51.788;21.582;2023-04-25T12:31:27;9.60;;;7.50;;
51529;SDS011;37613;51.788;21.582;2023-04-25T12:35:47;9.60;;;8.60;;
51529;SDS011;37613;51.788;21.582;2023-04-25T12:39:52;14.20;;;9.20;;
51529;SDS011;37613;51.788;21.582;2023-04-25T12:43:57;13.10;;;9.70;;
51529;SDS011;37613;51.788;21.582;2023-04-25T12:48:15;11.00;;;9.00;;
51529;SDS011;37613;51.788;21.582;2023-04-25T12:52:26;10.10;;;9.00;;
51529;SDS011;37613;51.788;21.582;2023-04-25T13:01:08;12.50;;;10.50;;
51529;SDS011;37613;51.788;21.582;2023-04-25T13:05:13;13.00;;;9.50;;
51529;SDS011;37613;51.788;21.582;2023-04-25T13:09:15;8.70;;;7.80;;
51529;SDS011;37613;51.788;21.582;2023-04-25T13:13:20;9.20;;;7.70;;
51529;SDS011;37613;51.788;21.582;2023-04-25T13:17:23;9.00;;;8.10;;
51529;SDS011;37613;51.788;21.582;2023-04-25T13:21:29;8.30;;;7.50;;
51529;SDS011;37613;51.788;21.582;2023-04-25T13:25:36;9.80;;;6.60;;
51529;SDS011;37613;51.788;21.582;2023-04-25T13:29:44;8.20;;;6.00;;
51529;SDS011;37613;51.788;21.582;2023-04-25T13:33:46;8.10;;;6.60;;
51529;SDS011;37613;51.788;21.582;2023-04-25T13:42:19;6.50;;;5.50;;
51529;SDS011;37613;51.788;21.582;2023-04-25T13:46:30;11.00;;;5.40;;
51529;SDS011;37613;51.788;21.582;2023-04-25T13:54:59;6.90;;;4.50;;
51529;SDS011;37613;51.788;21.582;2023-04-25T13:59:05;5.30;;;4.40;;
51529;SDS011;37613;51.788;21.582;2023-04-25T14:07:57;7.90;;;4.10;;
51529;SDS011;37613;51.788;21.582;2023-04-25T14:12:06;6.80;;;4.20;;
51529;SDS011;37613;51.788;21.582;2023-04-25T14:25:15;7.00;;;5.30;;
51529;SDS011;37613;51.788;21.582;2023-04-25T14:29:20;8.90;;;6.40;;
51529;SDS011;37613;51.788;21.582;2023-04-25T14:33:54;5.40;;;4.80;;
51529;SDS011;37613;51.788;21.582;2023-04-25T14:38:48;5.10;;;4.60;;
51529;SDS011;37613;51.788;21.582;2023-04-25T14:42:50;5.20;;;4.70;;
51529;SDS011;37613;51.788;21.582;2023-04-25T14:46:59;5.30;;;4.80;;
51529;SDS011;37613;51.788;21.582;2023-04-25T14:51:19;5.40;;;4.50;;
51529;SDS011;37613;51.788;21.582;2023-04-25T14:59:30;4.60;;;3.60;;
51529;SDS011;37613;51.788;21.582;2023-04-25T15:46:20;6.50;;;5.80;;
51529;SDS011;37613;51.788;21.582;2023-04-25T16:12:34;9.30;;;7.50;;
51529;SDS011;37613;51.788;21.582;2023-04-25T16:18:01;10.30;;;8.20;;
51529;SDS011;37613;51.788;21.582;2023-04-25T16:43:30;15.10;;;12.50;;
51529;SDS011;37613;51.788;21.582;2023-04-25T16:54:08;31.00;;;19.30;;
51529;SDS011;37613;51.788;21.582;2023-04-25T17:20:07;48.30;;;26.00;;
51529;SDS011;37613;51.788;21.582;2023-04-25T19:22:42;11.30;;;8.90;;
51529;SDS011;37613;51.788;21.582;2023-04-25T19:37:07;11.30;;;7.40;;
51529;SDS011;37613;51.788;21.582;2023-04-25T19:56:49;10.60;;;7.40;;
51529;SDS011;37613;51.788;21.582;2023-04-25T20:06:49;8.50;;;6.50;;
51529;SDS011;37613;51.788;21.582;2023-04-25T20:12:03;9.60;;;7.80;;
51529;SDS011;37613;51.788;21.582;2023-04-25T20:17:15;11.40;;;8.60;;
51529;SDS011;37613;51.788;21.582;2023-04-25T20:22:28;14.40;;;8.10;;
51529;SDS011;37613;51.788;21.582;2023-04-25T20:27:30;11.00;;;7.50;;
51529;SDS011;37613;51.788;21.582;2023-04-25T20:32:36;13.40;;;8.70;;
51529;SDS011;37613;51.788;21.582;2023-04-25T20:42:39;10.10;;;7.90;;
51529;SDS011;37613;51.788;21.582;2023-04-25T20:48:20;11.50;;;8.00;;
51529;SDS011;37613;51.788;21.582;2023-04-25T21:03:01;7.40;;;6.00;;
51529;SDS011;37613;51.788;21.582;2023-04-25T21:13:18;8.50;;;6.50;;
51529;SDS011;37613;51.788;21.582;2023-04-25T21:23:16;7.50;;;6.30;;
51529;SDS011;37613;51.788;21.582;2023-04-25T21:37:33;8.50;;;7.30;;
51529;SDS011;37613;51.788;21.582;2023-04-25T21:47:22;10.40;;;8.70;;
51529;SDS011;37613;51.788;21.582;2023-04-25T22:02:27;13.70;;;10.30;;
51529;SDS011;37613;51.788;21.582;2023-04-25T22:07:39;12.10;;;9.50;;
51529;SDS011;37613;51.788;21.582;2023-04-25T22:17:36;13.60;;;9.20;;
51529;SDS011;37613;51.788;21.582;2023-04-25T22:22:50;13.90;;;9.80;;
51529;SDS011;37613;51.788;21.582;2023-04-25T22:27:43;10.80;;;9.40;;
51529;SDS011;37613;51.788;21.582;2023-04-25T22:32:33;13.00;;;10.10;;
51529;SDS011;37613;51.788;21.582;2023-04-25T22:37:21;13.00;;;10.50;;
51529;SDS011;37613;51.788;21.582;2023-04-25T22:56:53;13.80;;;10.90;;
51529;SDS011;37613;51.788;21.582;2023-04-25T23:01:41;11.90;;;10.20;;
51529;SDS011;37613;51.788;21.582;2023-04-25T23:06:31;11.50;;;9.90;;
51529;SDS011;37613;51.788;21.582;2023-04-25T23:11:40;13.40;;;10.90;;
51529;SDS011;37613;51.788;21.582;2023-04-25T23:31:09;13.20;;;11.00;;
51529;SDS011;37613;51.788;21.582;2023-04-25T23:35:53;15.20;;;11.60;;
